Time;durP1;ratioP1;P1;durP2;ratioP2;P2;SDS_P1;SDS_P2;PMS_P1;PMS_P2;Temp;Humidity;BMP_temperature;BMP_pressure;BME280_temperature;BME280_humidity;BME280_pressure;Samples;Min_cycle;Max_cycle;Signal;HPM_P1;HPM_P2
2022/10/23 13:22:20;;;;;;;23.67;12.93;;;21.90;69.80;;;;;;5092186;27;20382;-73
2022/10/23 13:24:46;;;;;;;;;;;22.00;67.90;;;;;;5062212;28;20033;-73
2022/10/23 13:27:41;;;;;;;19.00;9.75;;;22.00;67.60;;;;;;5063984;22;19927;-73
2022/10/23 13:30:31;;;;;;;15.05;8.00;;;22.00;66.60;;;;;;5089833;28;20092;-73
2022/10/23 13:32:57;;;;;;;12.10;5.20;;;22.00;66.30;;;;;;5103351;28;20512;-74
2022/10/23 13:35:23;;;;;;;10.13;4.50;;;22.00;65.60;;;;;;5102456;28;20024;-72
2022/10/23 13:37:50;;;;;;;11.68;4.20;;;22.00;65.40;;;;;;5100995;28;20023;-73
2022/10/23 13:40:26;;;;;;;13.75;4.88;;;21.90;65.70;;;;;;5080091;28;20040;-73
2022/10/23 13:42:54;;;;;;;11.25;4.07;;;22.00;64.90;;;;;;5104595;28;20480;-74
2022/10/23 13:45:23;;;;;;;10.85;3.40;;;22.00;64.60;;;;;;5087348;28;20440;-73
2022/10/23 13:47:49;;;;;;;9.10;4.22;;;22.00;65.00;;;;;;5103198;28;20082;-73
2022/10/23 13:50:16;;;;;;;15.98;5.03;;;21.90;64.80;;;;;;5104350;28;20416;-74
2022/10/23 13:52:42;;;;;;;26.20;4.90;;;21.90;65.10;;;;;;5105165;28;20473;-73
2022/10/23 13:55:27;;;;;;;27.30;5.60;;;22.00;65.80;;;;;;5105601;28;20020;-73
2022/10/23 13:57:52;;;;;;;10.90;4.65;;;22.00;65.70;;;;;;5106778;28;20119;-73
2022/10/23 14:00:18;;;;;;;15.00;4.47;;;22.00;65.80;;;;;;5105026;28;20164;-74
2022/10/23 14:02:44;;;;;;;14.52;4.05;;;22.00;65.90;;;;;;5104920;28;20106;-73
2022/10/23 14:05:11;;;;;;;14.13;3.95;;;22.00;65.90;;;;;;5106914;28;20449;-73
2022/10/23 14:07:36;;;;;;;11.80;4.30;;;22.00;65.80;;;;;;5088494;28;20054;-73
2022/10/23 14:10:06;;;;;;;11.10;4.35;;;22.00;65.90;;;;;;5106009;28;20477;-73
2022/10/23 14:12:40;;;;;;;12.15;3.92;;;22.00;65.90;;;;;;5106312;28;20484;-73
2022/10/23 14:15:07;;;;;;;11.25;4.53;;;22.00;66.00;;;;;;5106713;28;20115;-74
2022/10/23 14:17:34;;;;;;;14.52;4.00;;;22.00;66.00;;;;;;5106306;28;20115;-73
2022/10/23 14:20:00;;;;;;;13.75;4.38;;;22.00;66.10;;;;;;5106242;28;20101;-73
2022/10/23 14:22:26;;;;;;;9.60;4.05;;;22.10;66.20;;;;;;5096997;28;20024;-73
2022/10/23 14:24:52;;;;;;;9.48;4.00;;;22.00;66.30;;;;;;5091401;28;20058;-73
2022/10/23 14:27:18;;;;;;;10.25;4.07;;;22.00;66.20;;;;;;5092710;28;20488;-72
2022/10/23 14:29:43;;;;;;;9.48;4.25;;;22.10;66.30;;;;;;5092725;28;20028;-72
2022/10/23 14:32:09;;;;;;;8.50;3.80;;;22.00;66.30;;;;;;5092307;28;20032;-73
2022/10/23 14:34:41;;;;;;;8.73;4.35;;;22.00;66.30;;;;;;5092839;28;20024;-73
2022/10/23 14:37:07;;;;;;;8.82;4.30;;;22.10;66.50;;;;;;5092556;28;20035;-73
2022/10/23 14:39:32;;;;;;;11.82;3.80;;;22.10;66.50;;;;;;5090943;28;20024;-72
2022/10/23 14:41:58;;;;;;;9.85;3.63;;;22.10;66.50;;;;;;5091998;28;20024;-72
2022/10/23 14:44:24;;;;;;;8.63;3.90;;;22.00;66.40;;;;;;5092497;28;20032;-72
2022/10/23 14:46:52;;;;;;;8.80;3.95;;;22.10;66.50;;;;;;5092241;28;20024;-72
2022/10/23 14:49:18;;;;;;;8.27;4.38;;;22.10;66.50;;;;;;5074697;28;20107;-72
2022/10/23 14:51:44;;;;;;;9.88;4.03;;;22.00;66.50;;;;;;5092150;28;20149;-72
2022/10/23 14:54:10;;;;;;;8.20;3.80;;;22.10;66.60;;;;;;5073866;28;20039;-73
2022/10/23 14:56:38;;;;;;;7.13;3.55;;;22.10;66.60;;;;;;5092041;28;20020;-73
2022/10/23 14:59:05;;;;;;;8.73;3.78;;;22.10;66.60;;;;;;5090820;28;20107;-71
2022/10/23 15:01:34;;;;;;;9.68;4.15;;;22.10;66.70;;;;;;5091773;28;20036;-73
2022/10/23 15:04:00;;;;;;;9.43;3.90;;;22.00;66.60;;;;;;5091726;28;20028;-73
2022/10/23 15:06:26;;;;;;;9.40;4.07;;;22.00;66.90;;;;;;5074169;28;20024;-73
2022/10/23 15:08:56;;;;;;;8.07;3.88;;;22.00;66.90;;;;;;5092000;28;20038;-73
2022/10/23 15:11:22;;;;;;;;;;;22.00;66.90;;;;;;5092282;28;20052;-74
2022/10/23 15:13:48;;;;;;;10.52;3.88;;;22.00;67.00;;;;;;5091737;28;19908;-71
2022/10/23 15:16:14;;;;;;;7.25;3.75;;;22.10;67.10;;;;;;5091836;28;20123;-72
2022/10/23 15:18:40;;;;;;;10.02;3.90;;;22.00;67.20;;;;;;5091573;28;20056;-73
2022/10/23 15:21:10;;;;;;;7.03;3.67;;;22.00;67.10;;;;;;5090606;28;20074;-73
2022/10/23 15:23:40;;;;;;;8.45;3.97;;;22.10;67.20;;;;;;5090150;28;20040;-72
2022/10/23 15:26:33;;;;;;;9.05;3.95;;;22.00;67.20;;;;;;5090593;28;20024;-72
2022/10/23 15:29:00;;;;;;;7.85;3.50;;;22.00;67.20;;;;;;5088918;28;20036;-74
2022/10/23 15:31:29;;;;;;;8.40;3.80;;;22.00;67.30;;;;;;5091479;28;20036;-74
2022/10/23 15:33:56;;;;;;;8.40;4.10;;;22.10;67.40;;;;;;5090356;28;20298;-73
2022/10/23 15:36:22;;;;;;;7.53;3.92;;;22.00;67.40;;;;;;5091572;28;20109;-74
2022/10/23 15:38:48;;;;;;;7.05;3.80;;;22.00;67.40;;;;;;5089425;28;20077;-74
2022/10/23 15:41:17;;;;;;;6.90;3.60;;;22.10;67.30;;;;;;5090122;28;20032;-73
2022/10/23 15:43:43;;;;;;;5.32;3.10;;;22.00;67.30;;;;;;5090879;28;20082;-74
2022/10/23 15:46:08;;;;;;;7.03;3.97;;;22.10;67.40;;;;;;5091572;28;20028;-73
2022/10/23 15:48:34;;;;;;;6.47;3.67;;;22.10;67.40;;;;;;5090558;28;20028;-73
2022/10/23 15:51:00;;;;;;;8.60;3.97;;;22.00;67.40;;;;;;5089380;28;20391;-73
2022/10/23 15:53:26;;;;;;;5.78;3.47;;;22.00;67.30;;;;;;5090473;28;20020;-74
2022/10/23 15:55:51;;;;;;;8.60;4.05;;;22.00;67.30;;;;;;5090777;28;20024;-73
2022/10/23 15:58:17;;;;;;;6.85;3.40;;;22.00;67.20;;;;;;5089566;28;20515;-73
2022/10/23 16:00:43;;;;;;;7.40;3.55;;;22.10;67.30;;;;;;5091473;28;20464;-72
2022/10/23 16:03:09;;;;;;;7.53;3.75;;;22.10;67.30;;;;;;5090856;28;20039;-73
2022/10/23 16:05:35;;;;;;;4.80;3.22;;;22.10;67.30;;;;;;5090832;28;20035;-73
2022/10/23 16:08:01;;;;;;;7.65;3.67;;;22.10;67.30;;;;;;5090416;28;20123;-73
2022/10/23 16:10:27;;;;;;;6.13;3.75;;;22.10;67.30;;;;;;5088843;28;20135;-72
2022/10/23 16:12:53;;;;;;;8.45;4.00;;;22.10;67.40;;;;;;5089709;28;20103;-74
2022/10/23 16:15:19;;;;;;;6.93;3.63;;;22.00;67.30;;;;;;5090288;28;20450;-74
2022/10/23 16:17:45;;;;;;;8.57;3.83;;;22.10;67.40;;;;;;5089855;28;20094;-74
2022/10/23 16:20:10;;;;;;;7.60;3.75;;;22.00;67.30;;;;;;5089026;28;20496;-72
2022/10/23 16:22:36;;;;;;;6.68;3.67;;;22.10;67.40;;;;;;5071210;28;20111;-72
2022/10/23 16:25:02;;;;;;;6.70;3.85;;;22.00;67.40;;;;;;5090062;28;20035;-72
2022/10/23 16:27:28;;;;;;;8.20;3.42;;;22.00;67.40;;;;;;5088507;28;20598;-72
2022/10/23 16:29:54;;;;;;;7.32;3.95;;;22.10;67.50;;;;;;5089856;28;20036;-72
2022/10/23 16:32:20;;;;;;;6.25;3.95;;;22.10;67.50;;;;;;5088180;28;20064;-72
2022/10/23 16:34:46;;;;;;;6.82;4.10;;;22.00;67.40;;;;;;5089838;28;20028;-72
2022/10/23 16:37:11;;;;;;;6.57;3.50;;;22.10;67.50;;;;;;5088432;28;20552;-72
2022/10/23 16:40:04;;;;;;;7.50;4.10;;;22.10;67.50;;;;;;5075455;28;20056;-72
2022/10/23 16:42:49;;;;;;;6.72;4.13;;;22.10;67.50;;;;;;5089323;28;20103;-72
2022/10/23 16:45:29;;;;;;;7.28;4.07;;;22.10;67.60;;;;;;5089465;28;20542;-72
2022/10/23 16:47:55;;;;;;;5.78;3.72;;;22.00;67.50;;;;;;5089627;28;20039;-73
2022/10/23 16:50:22;;;;;;;7.00;3.50;;;22.00;67.50;;;;;;5089720;28;20032;-73
2022/10/23 16:52:47;;;;;;;8.13;3.53;;;22.00;67.60;;;;;;5089163;28;20032;-73
2022/10/23 16:55:13;;;;;;;11.55;3.92;;;22.00;67.50;;;;;;5088087;28;20034;-74
2022/10/23 16:57:39;;;;;;;7.47;3.97;;;22.00;67.50;;;;;;5089531;28;20055;-73
2022/10/23 17:00:06;;;;;;;5.97;3.50;;;22.10;67.60;;;;;;5088432;28;20478;-73
2022/10/23 17:02:32;;;;;;;6.07;3.67;;;22.00;67.60;;;;;;5089283;28;20472;-73
2022/10/23 17:04:58;;;;;;;5.65;3.30;;;22.10;67.60;;;;;;5089316;28;20061;-72
2022/10/23 17:07:24;;;;;;;5.45;3.40;;;22.10;67.60;;;;;;5089528;28;20476;-73
2022/10/23 17:09:49;;;;;;;6.43;3.70;;;22.10;68.20;;;;;;5089370;28;20392;-72
2022/10/23 17:12:16;;;;;;;7.13;3.83;;;22.10;67.60;;;;;;5089061;28;20388;-73
2022/10/23 17:14:41;;;;;;;7.05;3.63;;;22.10;67.60;;;;;;5089357;28;20024;-73
2022/10/23 17:17:08;;;;;;;5.80;3.25;;;22.10;67.50;;;;;;5089439;28;20031;-73
2022/10/23 17:19:36;;;;;;;7.35;3.42;;;22.10;67.60;;;;;;5089267;28;20024;-73
2022/10/23 17:22:09;;;;;;;5.82;3.53;;;22.20;67.60;;;;;;5089126;28;20032;-73
2022/10/23 17:24:35;;;;;;;7.13;3.78;;;22.10;67.60;;;;;;5089348;28;20501;-73
2022/10/23 17:27:01;;;;;;;6.93;3.60;;;22.10;67.60;;;;;;5089292;28;20480;-73
2022/10/23 17:29:27;;;;;;;7.85;4.13;;;22.10;67.50;;;;;;5071404;28;20031;-74
2022/10/23 17:31:53;;;;;;;6.75;3.80;;;22.10;67.60;;;;;;5089027;28;20442;-73
2022/10/23 17:34:21;;;;;;;7.18;3.83;;;22.10;67.60;;;;;;5089303;28;20482;-73
2022/10/23 17:36:50;;;;;;;7.15;3.63;;;22.10;67.60;;;;;;5087739;28;20020;-73
2022/10/23 17:39:19;;;;;;;6.27;3.90;;;22.10;67.70;;;;;;5089461;28;20031;-73
2022/10/23 17:41:45;;;;;;;9.27;3.90;;;22.10;67.70;;;;;;5088914;28;20281;-73
2022/10/23 17:44:11;;;;;;;7.57;3.90;;;22.10;67.70;;;;;;5089088;28;20499;-74
2022/10/23 17:46:37;;;;;;;6.43;3.58;;;22.10;67.70;;;;;;5070876;28;20068;-73
2022/10/23 17:49:04;;;;;;;6.30;3.45;;;22.10;67.70;;;;;;5089161;28;20690;-73
2022/10/23 17:51:33;;;;;;;11.35;4.30;;;22.10;67.80;;;;;;5083343;28;20031;-73
2022/10/23 17:54:05;;;;;;;10.98;4.10;;;22.20;68.30;;;;;;5087669;28;20492;-72
2022/10/23 17:56:33;;;;;;;17.40;4.20;;;22.20;68.20;;;;;;5088913;28;20020;-73
2022/10/23 17:59:02;;;;;;;10.35;4.03;;;22.20;68.50;;;;;;5091390;28;20563;-73
2022/10/23 18:01:29;;;;;;;9.10;4.25;;;22.20;69.10;;;;;;5092339;28;20020;-72
2022/10/23 18:03:57;;;;;;;14.68;4.60;;;22.30;68.40;;;;;;5090354;28;20023;-73
2022/10/23 18:06:31;;;;;;;8.88;4.85;;;22.30;69.40;;;;;;5086919;28;20031;-73
2022/10/23 18:08:57;;;;;;;10.05;5.00;;;22.40;70.70;;;;;;5088099;28;20028;-72
2022/10/23 18:11:27;;;;;;;10.55;5.55;;;22.40;71.90;;;;;;5089370;28;20031;-72
2022/10/23 18:13:53;;;;;;;8.60;5.72;;;22.50;72.30;;;;;;5091383;28;20532;-73
2022/10/23 18:16:20;;;;;;;14.70;5.88;;;22.50;73.00;;;;;;5106266;28;20135;-73
2022/10/23 18:18:47;;;;;;;10.07;5.50;;;22.50;72.60;;;;;;5090683;28;20040;-73
2022/10/23 18:21:15;;;;;;;9.32;5.47;;;22.50;73.90;;;;;;5102315;28;20043;-73
2022/10/23 18:23:41;;;;;;;16.63;5.65;;;22.50;73.70;;;;;;5094187;28;20410;-74
2022/10/23 18:26:16;;;;;;;14.23;5.63;;;22.60;72.40;;;;;;5092111;28;20047;-74
2022/10/23 18:28:44;;;;;;;21.95;6.10;;;22.60;73.40;;;;;;5089829;28;20508;-74
2022/10/23 18:31:11;;;;;;;23.92;6.07;;;22.70;73.60;;;;;;5088099;28;20043;-74
2022/10/23 18:33:38;;;;;;;20.02;7.40;;;22.70;73.30;;;;;;5093949;28;20109;-74
2022/10/23 18:36:21;;;;;;;15.30;5.95;;;22.70;72.80;;;;;;5090962;28;20025;-73
2022/10/23 18:38:48;;;;;;;25.20;6.60;;;22.60;70.70;;;;;;5083976;28;20019;-74
2022/10/23 18:41:14;;;;;;;16.08;5.72;;;22.50;71.40;;;;;;5094351;28;20020;-74
2022/10/23 18:43:40;;;;;;;21.23;5.35;;;22.50;72.30;;;;;;5094571;28;20039;-74
2022/10/23 18:46:06;;;;;;;13.15;5.32;;;22.40;70.80;;;;;;5098620;28;20036;-74
2022/10/23 18:48:32;;;;;;;14.38;6.18;;;22.40;69.70;;;;;;5091743;28;20024;-75
2022/10/23 18:50:58;;;;;;;11.00;5.03;;;22.40;70.50;;;;;;5091563;28;20115;-74
2022/10/23 18:53:24;;;;;;;11.32;5.10;;;22.40;69.60;;;;;;5085213;28;20107;-74
2022/10/23 18:55:50;;;;;;;15.23;5.60;;;22.40;70.60;;;;;;5089701;28;20032;-74
2022/10/23 18:58:16;;;;;;;11.57;5.15;;;22.40;69.70;;;;;;5086958;28;20461;-73
2022/10/23 19:00:42;;;;;;;11.18;5.28;;;22.40;70.20;;;;;;5089290;28;20024;-73
2022/10/23 19:03:19;;;;;;;13.73;5.35;;;22.40;69.70;;;;;;5084089;28;20024;-73
2022/10/23 19:05:45;;;;;;;15.48;5.22;;;22.40;70.80;;;;;;5076241;28;20082;-74
2022/10/23 19:08:11;;;;;;;11.82;5.65;;;22.40;70.90;;;;;;5090071;28;20032;-74
2022/10/23 19:10:39;;;;;;;8.52;4.20;;;22.40;70.30;;;;;;5089641;28;20039;-73
2022/10/23 19:13:05;;;;;;;13.05;4.72;;;22.40;69.80;;;;;;5088799;28;20388;-73
2022/10/23 19:15:33;;;;;;;13.10;5.40;;;22.30;69.80;;;;;;5088207;28;20043;-73
2022/10/23 19:17:59;;;;;;;8.88;5.07;;;22.40;70.50;;;;;;5088077;28;20032;-74
2022/10/23 19:20:25;;;;;;;7.78;4.50;;;22.40;70.70;;;;;;5086672;28;20032;-73
2022/10/23 19:22:53;;;;;;;10.07;4.22;;;22.40;71.30;;;;;;5087267;28;20032;-73
2022/10/23 19:25:27;;;;;;;10.18;4.68;;;22.40;70.20;;;;;;5089280;28;20105;-74
2022/10/23 19:27:57;;;;;;;9.40;4.90;;;22.40;70.10;;;;;;5065732;23;20046;-73
2022/10/23 19:30:23;;;;;;;9.93;4.85;;;22.40;69.90;;;;;;4982303;28;20403;-73
2022/10/23 19:32:50;;;;;;;14.00;5.18;;;22.30;69.80;;;;;;4978939;28;20034;-73
2022/10/23 19:35:18;;;;;;;13.05;4.95;;;22.40;70.00;;;;;;4978415;28;20027;-73
2022/10/23 19:37:44;;;;;;;10.70;4.50;;;22.30;70.10;;;;;;4973398;28;20033;-73
2022/10/23 19:40:11;;;;;;;10.23;4.82;;;22.30;69.80;;;;;;4975576;28;20031;-73
2022/10/23 19:42:40;;;;;;;9.90;4.80;;;22.30;69.90;;;;;;4971959;28;20121;-73
2022/10/23 19:45:11;;;;;;;12.90;4.80;;;22.30;70.10;;;;;;4977914;28;20087;-73
2022/10/23 19:47:37;;;;;;;9.40;4.60;;;22.30;70.00;;;;;;4987708;28;20032;-74
2022/10/23 19:50:05;;;;;;;9.75;4.70;;;22.30;69.90;;;;;;4978110;28;20026;-74
2022/10/23 19:52:31;;;;;;;11.98;4.70;;;22.30;69.90;;;;;;4978482;28;20027;-73
2022/10/23 19:54:56;;;;;;;7.60;4.40;;;22.30;69.90;;;;;;4978499;28;20536;-74
2022/10/23 19:57:22;;;;;;;11.77;5.10;;;22.40;69.90;;;;;;4981237;28;20117;-74
2022/10/23 19:59:49;;;;;;;9.50;4.35;;;22.30;69.80;;;;;;4963881;28;20042;-74
2022/10/23 20:02:19;;;;;;;10.57;4.40;;;22.30;69.90;;;;;;4966394;28;20023;-74
2022/10/23 20:04:45;;;;;;;10.27;4.57;;;22.30;69.80;;;;;;4967509;28;20027;-74
2022/10/23 20:07:11;;;;;;;8.95;4.30;;;22.30;69.80;;;;;;4977614;28;20365;-74
2022/10/23 20:09:37;;;;;;;9.88;4.63;;;22.30;70.00;;;;;;4986976;28;20121;-74
2022/10/23 20:12:03;;;;;;;9.82;4.55;;;22.30;70.00;;;;;;4981706;28;20031;-74
2022/10/23 20:14:30;;;;;;;9.20;4.60;;;22.30;70.00;;;;;;4987451;28;20513;-74
2022/10/23 20:16:55;;;;;;;15.02;4.57;;;22.30;70.00;;;;;;4988025;28;20033;-74
2022/10/23 20:19:24;;;;;;;8.35;4.38;;;22.30;70.00;;;;;;4985716;28;20384;-74
2022/10/23 20:21:50;;;;;;;9.27;4.70;;;22.30;70.00;;;;;;4987425;28;20026;-74
2022/10/23 20:24:18;;;;;;;10.73;4.45;;;22.30;70.00;;;;;;4987826;28;20030;-74
2022/10/23 20:26:46;;;;;;;8.48;4.43;;;22.30;70.00;;;;;;4987608;28;20491;-74
2022/10/23 20:29:12;;;;;;;7.97;4.38;;;22.30;70.50;;;;;;4968085;28;20039;-73
2022/10/23 20:31:38;;;;;;;8.23;4.60;;;22.30;70.40;;;;;;4975636;28;20027;-73
2022/10/23 20:34:05;;;;;;;10.18;4.45;;;22.30;70.50;;;;;;4987889;28;20461;-72
2022/10/23 20:36:34;;;;;;;8.90;4.45;;;22.30;70.20;;;;;;4978672;28;20022;-72
2022/10/23 20:39:04;;;;;;;13.45;4.47;;;22.30;70.20;;;;;;4973315;28;20034;-72
2022/10/23 20:41:32;;;;;;;10.30;4.72;;;22.30;70.20;;;;;;4985362;28;20023;-72
2022/10/23 20:43:58;;;;;;;8.05;4.20;;;22.30;70.20;;;;;;4984791;28;20110;-72
2022/10/23 20:46:25;;;;;;;9.23;4.78;;;22.30;70.20;;;;;;4987145;28;20030;-73
2022/10/23 20:48:51;;;;;;;8.73;4.22;;;22.30;70.10;;;;;;4969817;28;20034;-72
2022/10/23 20:51:20;;;;;;;14.15;4.82;;;22.30;70.30;;;;;;4986980;28;20046;-72
2022/10/23 20:53:46;;;;;;;6.65;3.95;;;22.30;70.10;;;;;;4983933;28;20373;-72
2022/10/23 20:56:18;;;;;;;10.20;4.45;;;22.30;70.00;;;;;;4967695;28;20023;-72
2022/10/23 20:58:44;;;;;;;9.55;4.22;;;22.30;70.00;;;;;;4981215;28;20145;-72
2022/10/23 21:01:12;;;;;;;11.20;4.53;;;22.30;70.00;;;;;;4985789;28;20117;-73
2022/10/23 21:03:38;;;;;;;8.40;4.40;;;22.30;70.00;;;;;;4986544;28;20038;-73
2022/10/23 21:06:06;;;;;;;10.43;4.43;;;22.30;70.00;;;;;;4987165;28;20054;-73
2022/10/23 21:08:32;;;;;;;10.02;4.10;;;22.30;70.10;;;;;;4987015;28;20097;-73
2022/10/23 21:10:58;;;;;;;9.82;4.80;;;22.20;70.00;;;;;;4985675;28;20038;-73
2022/10/23 21:13:25;;;;;;;9.40;4.40;;;22.30;70.00;;;;;;4986146;28;20109;-73
2022/10/23 21:15:51;;;;;;;9.40;4.50;;;22.20;70.00;;;;;;4986783;28;20502;-73
2022/10/23 21:18:17;;;;;;;11.20;4.72;;;22.20;70.00;;;;;;4986744;28;20038;-73
2022/10/23 21:20:43;;;;;;;9.13;4.28;;;22.20;70.00;;;;;;4987087;28;20037;-72
2022/10/23 21:23:10;;;;;;;12.05;4.22;;;22.20;70.00;;;;;;4984943;28;20511;-73
2022/10/23 21:25:42;;;;;;;8.50;3.92;;;22.20;70.10;;;;;;4987123;28;20034;-73
2022/10/23 21:28:09;;;;;;;7.50;3.83;;;22.20;70.00;;;;;;4985964;28;20392;-72
2022/10/23 21:30:36;;;;;;;8.77;3.90;;;22.20;70.00;;;;;;4980736;28;20023;-74
2022/10/23 21:33:04;;;;;;;13.07;4.63;;;22.20;70.20;;;;;;4964064;28;20030;-73
2022/10/23 21:35:30;;;;;;;9.43;4.05;;;22.20;70.10;;;;;;4984324;28;20029;-74
2022/10/23 21:37:57;;;;;;;12.02;4.43;;;22.20;70.30;;;;;;4985029;28;20027;-73
2022/10/23 21:40:23;;;;;;;10.88;4.68;;;22.20;70.10;;;;;;4972380;28;20381;-73
2022/10/23 21:42:48;;;;;;;9.32;4.63;;;22.30;70.40;;;;;;4981839;28;20032;-74
2022/10/23 21:45:14;;;;;;;9.77;5.07;;;22.30;70.10;;;;;;4978777;28;20022;-76
2022/10/23 21:47:40;;;;;;;14.80;4.90;;;22.20;68.80;;;;;;4975723;28;20019;-75
2022/10/23 21:50:06;;;;;;;17.80;6.00;;;22.10;67.20;;;;;;4983223;28;20501;-74
2022/10/23 21:52:32;;;;;;;14.70;6.45;;;22.00;65.50;;;;;;4987723;28;20034;-75
2022/10/23 21:54:58;;;;;;;9.75;5.72;;;21.90;64.00;;;;;;4988833;28;20309;-74
2022/10/23 21:57:23;;;;;;;14.60;5.53;;;21.80;62.30;;;;;;4984250;28;20026;-72
2022/10/23 21:59:49;;;;;;;20.38;6.28;;;21.80;63.00;;;;;;4980337;28;20019;-72
2022/10/23 22:02:15;;;;;;;13.43;5.32;;;21.90;64.10;;;;;;4978367;28;20058;-73
2022/10/23 22:04:41;;;;;;;12.90;5.60;;;21.90;64.90;;;;;;4988998;28;20487;-73
2022/10/23 22:07:09;;;;;;;16.42;5.85;;;21.90;63.50;;;;;;4983888;28;20054;-73
2022/10/23 22:09:35;;;;;;;20.85;6.68;;;22.00;64.60;;;;;;4983553;28;20031;-73
2022/10/23 22:12:01;;;;;;;9.40;5.13;;;22.00;64.60;;;;;;4969811;28;20031;-73
2022/10/23 22:14:27;;;;;;;14.50;5.68;;;22.00;64.80;;;;;;4988892;28;20058;-73
2022/10/23 22:16:53;;;;;;;12.45;5.55;;;22.10;65.20;;;;;;4980207;28;20395;-73
2022/10/23 22:19:21;;;;;;;14.43;5.40;;;22.10;65.40;;;;;;4988255;28;20029;-73
2022/10/23 22:21:48;;;;;;;7.80;5.10;;;22.10;65.70;;;;;;4989529;28;20440;-73
2022/10/23 22:24:16;;;;;;;12.65;5.57;;;22.10;65.90;;;;;;4989277;28;20031;-73
2022/10/23 22:26:48;;;;;;;15.48;5.60;;;22.10;66.20;;;;;;5004357;28;20030;-73
2022/10/23 22:29:17;;;;;;;13.57;6.03;;;22.10;66.40;;;;;;4971817;28;20046;-72
2022/10/23 22:31:44;;;;;;;11.93;4.72;;;22.10;66.50;;;;;;4988938;28;20064;-73
2022/10/23 22:34:14;;;;;;;10.90;5.25;;;22.10;66.70;;;;;;4987943;28;20030;-73
2022/10/23 22:36:40;;;;;;;12.77;4.78;;;22.10;66.70;;;;;;4987870;28;20105;-73
2022/10/23 22:39:07;;;;;;;15.70;5.80;;;22.10;67.00;;;;;;4988958;28;20117;-73
2022/10/23 22:41:33;;;;;;;15.45;5.20;;;22.10;67.20;;;;;;5004263;28;20041;-73
2022/10/23 22:43:59;;;;;;;13.23;5.40;;;22.10;67.10;;;;;;4985267;28;20491;-72
2022/10/23 22:46:27;;;;;;;11.75;5.13;;;22.10;67.10;;;;;;4989700;28;20039;-71
2022/10/23 22:48:57;;;;;;;14.25;5.60;;;22.10;67.40;;;;;;4969351;28;20125;-72
2022/10/23 22:51:25;;;;;;;;;;;22.10;67.50;;;;;;4970338;28;20031;-72
2022/10/23 22:53:51;;;;;;;10.75;5.72;;;22.10;67.60;;;;;;4983053;28;19910;-72
2022/10/23 22:56:22;;;;;;;11.13;5.50;;;22.10;67.60;;;;;;4986329;28;20106;-72
2022/10/23 22:58:48;;;;;;;14.10;5.68;;;22.10;67.70;;;;;;4982349;28;20027;-73
2022/10/23 23:01:24;;;;;;;17.65;5.63;;;22.10;67.70;;;;;;4970055;28;20543;-72
2022/10/23 23:03:51;;;;;;;14.52;5.80;;;22.10;67.80;;;;;;4987304;28;20038;-73
2022/10/23 23:06:18;;;;;;;11.05;5.60;;;22.20;68.00;;;;;;4992504;28;20041;-72
2022/10/23 23:08:44;;;;;;;14.18;5.55;;;22.20;68.00;;;;;;4989048;28;20426;-72
2022/10/23 23:11:12;;;;;;;19.50;6.25;;;22.10;68.00;;;;;;4986538;28;20034;-72
2022/10/23 23:13:39;;;;;;;11.30;5.50;;;22.10;68.10;;;;;;4975656;28;20062;-72
2022/10/23 23:16:06;;;;;;;21.08;5.78;;;22.10;68.20;;;;;;4990753;28;20024;-72
2022/10/23 23:18:32;;;;;;;14.98;5.75;;;22.10;68.20;;;;;;4981212;28;20497;-72
2022/10/23 23:21:03;;;;;;;22.05;6.90;;;22.10;68.20;;;;;;4968965;28;20105;-72
2022/10/23 23:23:29;;;;;;;11.20;5.55;;;22.10;68.20;;;;;;4985292;28;20023;-73
2022/10/23 23:25:55;;;;;;;14.18;5.63;;;22.10;68.30;;;;;;4979662;28;20117;-72
2022/10/23 23:28:22;;;;;;;10.15;5.30;;;22.10;68.40;;;;;;4981107;28;20186;-72
2022/10/23 23:30:48;;;;;;;12.35;5.88;;;22.10;68.40;;;;;;4984245;28;20113;-72
2022/10/23 23:33:17;;;;;;;17.20;6.15;;;22.10;68.50;;;;;;4977359;28;20391;-72
2022/10/23 23:35:45;;;;;;;10.60;5.30;;;22.10;68.50;;;;;;4980174;28;20088;-72
2022/10/23 23:38:12;;;;;;;17.40;5.43;;;22.10;68.50;;;;;;4979279;28;20031;-73
2022/10/23 23:40:38;;;;;;;12.43;5.95;;;22.20;68.60;;;;;;4988233;28;20083;-72
2022/10/23 23:43:04;;;;;;;13.68;5.50;;;22.10;68.70;;;;;;4991860;28;20054;-72
2022/10/23 23:45:30;;;;;;;12.55;4.68;;;22.10;68.70;;;;;;4987255;28;20078;-72
2022/10/23 23:47:56;;;;;;;18.15;5.53;;;22.20;68.80;;;;;;4995432;28;20077;-73
2022/10/23 23:50:23;;;;;;;10.90;4.97;;;22.10;68.70;;;;;;4969716;28;20077;-72
2022/10/23 23:52:49;;;;;;;10.27;5.10;;;22.20;68.90;;;;;;4986758;28;20041;-72
2022/10/23 23:55:15;;;;;;;13.55;5.38;;;22.20;68.80;;;;;;5071223;28;20030;-72
2022/10/23 23:57:40;;;;;;;10.93;5.40;;;22.10;68.80;;;;;;4978922;28;20391;-72
